sensor_id;sensor_type;location;lat;lon;timestamp;temperature;humidity
20045;DHT22;10183;47.808;9.476;2023-03-02T00:01:42;1.30;99.90
20045;DHT22;10183;47.808;9.476;2023-03-02T00:04:13;1.30;99.90
20045;DHT22;10183;47.808;9.476;2023-03-02T00:06:42;1.30;99.90
20045;DHT22;10183;47.808;9.476;2023-03-02T00:09:08;1.30;99.90
20045;DHT22;10183;47.808;9.476;2023-03-02T00:11:36;1.30;99.90
20045;DHT22;10183;47.808;9.476;2023-03-02T00:14:04;1.30;99.90
20045;DHT22;10183;47.808;9.476;2023-03-02T00:16:30;1.30;99.90
20045;DHT22;10183;47.808;9.476;2023-03-02T00:18:56;1.30;99.90
20045;DHT22;10183;47.808;9.476;2023-03-02T00:21:22;1.30;99.90
20045;DHT22;10183;47.808;9.476;2023-03-02T00:23:50;1.30;99.90
20045;DHT22;10183;47.808;9.476;2023-03-02T00:26:17;1.30;99.90
20045;DHT22;10183;47.808;9.476;2023-03-02T00:28:43;1.30;99.90
20045;DHT22;10183;47.808;9.476;2023-03-02T00:31:09;1.30;99.90
20045;DHT22;10183;47.808;9.476;2023-03-02T00:33:35;1.30;99.90
20045;DHT22;10183;47.808;9.476;2023-03-02T00:36:02;1.30;99.90
20045;DHT22;10183;47.808;9.476;2023-03-02T00:38:29;1.30;99.90
20045;DHT22;10183;47.808;9.476;2023-03-02T00:40:55;1.30;99.90
20045;DHT22;10183;47.808;9.476;2023-03-02T00:43:21;1.30;99.90
20045;DHT22;10183;47.808;9.476;2023-03-02T00:45:53;1.30;99.90
20045;DHT22;10183;47.808;9.476;2023-03-02T00:48:19;1.30;99.90
20045;DHT22;10183;47.808;9.476;2023-03-02T00:50:45;1.30;99.90
20045;DHT22;10183;47.808;9.476;2023-03-02T00:53:11;1.30;99.90
20045;DHT22;10183;47.808;9.476;2023-03-02T00:55:37;1.20;99.90
20045;DHT22;10183;47.808;9.476;2023-03-02T00:58:04;1.20;99.90
20045;DHT22;10183;47.808;9.476;2023-03-02T01:00:31;1.20;99.90
20045;DHT22;10183;47.808;9.476;2023-03-02T01:02:59;1.20;99.90
20045;DHT22;10183;47.808;9.476;2023-03-02T01:05:25;1.20;99.90
20045;DHT22;10183;47.808;9.476;2023-03-02T01:07:51;1.20;99.90
20045;DHT22;10183;47.808;9.476;2023-03-02T01:10:17;1.20;99.90
20045;DHT22;10183;47.808;9.476;2023-03-02T01:12:43;1.20;99.90
20045;DHT22;10183;47.808;9.476;2023-03-02T01:15:10;1.20;99.90
20045;DHT22;10183;47.808;9.476;2023-03-02T01:17:36;1.20;99.90
20045;DHT22;10183;47.808;9.476;2023-03-02T01:20:02;1.20;99.90
20045;DHT22;10183;47.808;9.476;2023-03-02T01:22:30;1.20;99.90
20045;DHT22;10183;47.808;9.476;2023-03-02T01:24:56;1.20;99.90
20045;DHT22;10183;47.808;9.476;2023-03-02T01:27:23;1.20;99.90
20045;DHT22;10183;47.808;9.476;2023-03-02T01:29:49;1.20;99.90
20045;DHT22;10183;47.808;9.476;2023-03-02T01:32:15;1.20;99.90
20045;DHT22;10183;47.808;9.476;2023-03-02T01:34:42;1.20;99.90
20045;DHT22;10183;47.808;9.476;2023-03-02T01:37:08;1.20;99.90
20045;DHT22;10183;47.808;9.476;2023-03-02T01:39:34;1.20;99.90
20045;DHT22;10183;47.808;9.476;2023-03-02T01:42:00;1.20;99.90
20045;DHT22;10183;47.808;9.476;2023-03-02T01:44:45;1.20;99.90
20045;DHT22;10183;47.808;9.476;2023-03-02T01:49:42;1.20;99.90
20045;DHT22;10183;47.808;9.476;2023-03-02T01:52:10;1.20;99.90
20045;DHT22;10183;47.808;9.476;2023-03-02T01:54:38;1.10;99.90
20045;DHT22;10183;47.808;9.476;2023-03-02T01:57:06;1.10;99.90
20045;DHT22;10183;47.808;9.476;2023-03-02T01:59:34;1.10;99.90
20045;DHT22;10183;47.808;9.476;2023-03-02T02:02:04;1.10;99.90
20045;DHT22;10183;47.808;9.476;2023-03-02T02:04:32;1.20;99.90
20045;DHT22;10183;47.808;9.476;2023-03-02T02:07:02;1.20;99.90
20045;DHT22;10183;47.808;9.476;2023-03-02T02:09:55;1.20;99.90
20045;DHT22;10183;47.808;9.476;2023-03-02T02:12:22;1.20;99.90
20045;DHT22;10183;47.808;9.476;2023-03-02T02:14:49;1.20;99.90
20045;DHT22;10183;47.808;9.476;2023-03-02T02:17:16;1.20;99.90
20045;DHT22;10183;47.808;9.476;2023-03-02T02:20:10;1.20;99.90
20045;DHT22;10183;47.808;9.476;2023-03-02T02:27:50;1.10;99.90
20045;DHT22;10183;47.808;9.476;2023-03-02T02:30:17;1.20;99.90
20045;DHT22;10183;47.808;9.476;2023-03-02T02:32:46;1.10;99.90
20045;DHT22;10183;47.808;9.476;2023-03-02T02:35:20;1.10;99.90
20045;DHT22;10183;47.808;9.476;2023-03-02T02:37:50;1.10;99.90
20045;DHT22;10183;47.808;9.476;2023-03-02T02:40:50;1.10;99.90
20045;DHT22;10183;47.808;9.476;2023-03-02T02:43:19;1.10;99.90
20045;DHT22;10183;47.808;9.476;2023-03-02T02:45:48;1.10;99.90
20045;DHT22;10183;47.808;9.476;2023-03-02T02:48:15;1.10;99.90
20045;DHT22;10183;47.808;9.476;2023-03-02T02:50:43;1.10;99.90
20045;DHT22;10183;47.808;9.476;2023-03-02T02:53:13;1.10;99.90
20045;DHT22;10183;47.808;9.476;2023-03-02T02:55:41;1.10;99.90
20045;DHT22;10183;47.808;9.476;2023-03-02T02:58:33;1.10;99.90
20045;DHT22;10183;47.808;9.476;2023-03-02T03:01:01;1.10;99.90
20045;DHT22;10183;47.808;9.476;2023-03-02T03:03:38;1.10;99.90
20045;DHT22;10183;47.808;9.476;2023-03-02T03:06:07;1.10;99.90
20045;DHT22;10183;47.808;9.476;2023-03-02T03:11:14;1.10;99.90
20045;DHT22;10183;47.808;9.476;2023-03-02T03:13:41;1.10;99.90
20045;DHT22;10183;47.808;9.476;2023-03-02T03:16:10;1.10;99.90
20045;DHT22;10183;47.808;9.476;2023-03-02T03:18:42;1.10;99.90
20045;DHT22;10183;47.808;9.476;2023-03-02T03:21:08;1.10;99.90
20045;DHT22;10183;47.808;9.476;2023-03-02T03:23:34;1.10;99.90
20045;DHT22;10183;47.808;9.476;2023-03-02T03:26:04;1.10;99.90
20045;DHT22;10183;47.808;9.476;2023-03-02T03:28:31;1.10;99.90
20045;DHT22;10183;47.808;9.476;2023-03-02T03:30:57;1.10;99.90
20045;DHT22;10183;47.808;9.476;2023-03-02T03:33:24;1.10;99.90
20045;DHT22;10183;47.808;9.476;2023-03-02T03:35:50;1.10;99.90
20045;DHT22;10183;47.808;9.476;2023-03-02T03:38:17;1.10;99.90
20045;DHT22;10183;47.808;9.476;2023-03-02T03:40:43;1.10;99.90
20045;DHT22;10183;47.808;9.476;2023-03-02T03:43:09;1.10;99.90
20045;DHT22;10183;47.808;9.476;2023-03-02T03:45:38;1.10;99.90
20045;DHT22;10183;47.808;9.476;2023-03-02T03:48:05;1.10;99.90
20045;DHT22;10183;47.808;9.476;2023-03-02T03:50:32;1.10;99.90
20045;DHT22;10183;47.808;9.476;2023-03-02T03:52:58;1.00;99.90
20045;DHT22;10183;47.808;9.476;2023-03-02T03:55:24;1.00;99.90
20045;DHT22;10183;47.808;9.476;2023-03-02T03:57:53;1.00;99.90
20045;DHT22;10183;47.808;9.476;2023-03-02T04:00:20;0.90;99.90
20045;DHT22;10183;47.808;9.476;2023-03-02T04:02:47;0.90;99.90
20045;DHT22;10183;47.808;9.476;2023-03-02T04:05:13;0.90;99.90
20045;DHT22;10183;47.808;9.476;2023-03-02T04:07:40;0.90;99.90
20045;DHT22;10183;47.808;9.476;2023-03-02T04:10:07;0.90;99.90
20045;DHT22;10183;47.808;9.476;2023-03-02T04:12:36;0.90;99.90
20045;DHT22;10183;47.808;9.476;2023-03-02T04:15:05;0.90;99.90
20045;DHT22;10183;47.808;9.476;2023-03-02T04:17:32;0.90;99.90
20045;DHT22;10183;47.808;9.476;2023-03-02T04:19:58;0.90;99.90
20045;DHT22;10183;47.808;9.476;2023-03-02T04:22:25;0.90;99.90
20045;DHT22;10183;47.808;9.476;2023-03-02T04:24:51;0.90;99.90
20045;DHT22;10183;47.808;9.476;2023-03-02T04:27:18;0.90;99.90
20045;DHT22;10183;47.808;9.476;2023-03-02T04:29:44;0.90;99.90
20045;DHT22;10183;47.808;9.476;2023-03-02T04:32:11;0.90;99.90
20045;DHT22;10183;47.808;9.476;2023-03-02T04:34:40;0.90;99.90
20045;DHT22;10183;47.808;9.476;2023-03-02T04:37:06;0.80;99.90
20045;DHT22;10183;47.808;9.476;2023-03-02T04:39:32;0.80;99.90
20045;DHT22;10183;47.808;9.476;2023-03-02T04:41:58;0.90;99.90
20045;DHT22;10183;47.808;9.476;2023-03-02T04:44:24;0.80;99.90
20045;DHT22;10183;47.808;9.476;2023-03-02T04:46:50;0.90;99.90
20045;DHT22;10183;47.808;9.476;2023-03-02T04:49:18;0.90;99.90
20045;DHT22;10183;47.808;9.476;2023-03-02T04:51:47;0.90;99.90
20045;DHT22;10183;47.808;9.476;2023-03-02T04:54:19;0.80;99.90
20045;DHT22;10183;47.808;9.476;2023-03-02T04:56:46;0.80;99.90
20045;DHT22;10183;47.808;9.476;2023-03-02T04:59:22;0.80;99.90
20045;DHT22;10183;47.808;9.476;2023-03-02T05:01:49;0.80;99.90
20045;DHT22;10183;47.808;9.476;2023-03-02T05:04:15;0.80;99.90
20045;DHT22;10183;47.808;9.476;2023-03-02T05:06:41;0.80;99.90
20045;DHT22;10183;47.808;9.476;2023-03-02T05:09:08;0.80;99.90
20045;DHT22;10183;47.808;9.476;2023-03-02T05:11:34;0.80;99.90
20045;DHT22;10183;47.808;9.476;2023-03-02T05:14:03;0.80;99.90
20045;DHT22;10183;47.808;9.476;2023-03-02T05:16:32;0.80;99.90
20045;DHT22;10183;47.808;9.476;2023-03-02T05:19:00;0.70;99.90
20045;DHT22;10183;47.808;9.476;2023-03-02T05:21:27;0.70;99.90
20045;DHT22;10183;47.808;9.476;2023-03-02T05:23:53;0.70;99.90
20045;DHT22;10183;47.808;9.476;2023-03-02T05:26:19;0.70;99.90
20045;DHT22;10183;47.808;9.476;2023-03-02T05:28:45;0.70;99.90
20045;DHT22;10183;47.808;9.476;2023-03-02T05:31:34;0.70;99.90
20045;DHT22;10183;47.808;9.476;2023-03-02T05:34:03;0.70;99.90
20045;DHT22;10183;47.808;9.476;2023-03-02T05:36:29;0.70;99.90
20045;DHT22;10183;47.808;9.476;2023-03-02T05:38:56;0.70;99.90
20045;DHT22;10183;47.808;9.476;2023-03-02T05:41:22;0.70;99.90
20045;DHT22;10183;47.808;9.476;2023-03-02T05:43:48;0.70;99.90
20045;DHT22;10183;47.808;9.476;2023-03-02T05:46:15;0.70;99.90
20045;DHT22;10183;47.808;9.476;2023-03-02T05:48:42;0.70;99.90
20045;DHT22;10183;47.808;9.476;2023-03-02T05:51:08;0.70;99.90
20045;DHT22;10183;47.808;9.476;2023-03-02T05:53:34;0.70;99.90
20045;DHT22;10183;47.808;9.476;2023-03-02T05:56:00;0.70;99.90
20045;DHT22;10183;47.808;9.476;2023-03-02T05:58:26;0.70;99.90
20045;DHT22;10183;47.808;9.476;2023-03-02T06:00:53;0.70;99.90
20045;DHT22;10183;47.808;9.476;2023-03-02T06:03:19;0.70;99.90
20045;DHT22;10183;47.808;9.476;2023-03-02T06:05:45;0.70;99.90
20045;DHT22;10183;47.808;9.476;2023-03-02T06:08:16;0.70;99.90
20045;DHT22;10183;47.808;9.476;2023-03-02T06:10:43;0.70;99.90
20045;DHT22;10183;47.808;9.476;2023-03-02T06:13:09;0.70;99.90
20045;DHT22;10183;47.808;9.476;2023-03-02T06:15:36;0.70;99.90
20045;DHT22;10183;47.808;9.476;2023-03-02T06:18:02;0.70;99.90
20045;DHT22;10183;47.808;9.476;2023-03-02T06:20:28;0.70;99.90
20045;DHT22;10183;47.808;9.476;2023-03-02T06:22:54;0.70;99.90
20045;DHT22;10183;47.808;9.476;2023-03-02T06:25:22;0.70;99.90
20045;DHT22;10183;47.808;9.476;2023-03-02T06:27:50;0.70;99.90
20045;DHT22;10183;47.808;9.476;2023-03-02T06:30:18;0.70;99.90
20045;DHT22;10183;47.808;9.476;2023-03-02T06:32:45;0.70;99.90
20045;DHT22;10183;47.808;9.476;2023-03-02T06:35:12;0.70;99.90
20045;DHT22;10183;47.808;9.476;2023-03-02T06:37:39;0.70;99.90
20045;DHT22;10183;47.808;9.476;2023-03-02T06:40:06;0.70;99.90
20045;DHT22;10183;47.808;9.476;2023-03-02T06:42:37;0.70;99.90
20045;DHT22;10183;47.808;9.476;2023-03-02T06:45:05;0.70;99.90
20045;DHT22;10183;47.808;9.476;2023-03-02T06:47:31;0.80;99.90
20045;DHT22;10183;47.808;9.476;2023-03-02T06:49:59;0.80;99.90
20045;DHT22;10183;47.808;9.476;2023-03-02T06:52:25;0.80;99.90
20045;DHT22;10183;47.808;9.476;2023-03-02T06:54:53;0.80;99.90
20045;DHT22;10183;47.808;9.476;2023-03-02T06:57:19;0.80;99.90
20045;DHT22;10183;47.808;9.476;2023-03-02T06:59:45;0.80;99.90
20045;DHT22;10183;47.808;9.476;2023-03-02T07:02:11;0.90;99.90
20045;DHT22;10183;47.808;9.476;2023-03-02T07:04:38;0.80;99.90
20045;DHT22;10183;47.808;9.476;2023-03-02T07:07:04;0.90;99.90
20045;DHT22;10183;47.808;9.476;2023-03-02T07:09:32;0.80;99.90
20045;DHT22;10183;47.808;9.476;2023-03-02T07:11:59;0.80;99.90
20045;DHT22;10183;47.808;9.476;2023-03-02T07:14:25;0.80;99.90
20045;DHT22;10183;47.808;9.476;2023-03-02T07:16:51;0.80;99.90
20045;DHT22;10183;47.808;9.476;2023-03-02T07:19:18;0.90;99.90
20045;DHT22;10183;47.808;9.476;2023-03-02T07:21:44;0.80;99.90
20045;DHT22;10183;47.808;9.476;2023-03-02T07:24:10;0.80;99.90
20045;DHT22;10183;47.808;9.476;2023-03-02T07:26:36;0.90;99.90
20045;DHT22;10183;47.808;9.476;2023-03-02T07:29:02;0.90;99.90
20045;DHT22;10183;47.808;9.476;2023-03-02T07:31:28;1.00;99.90
20045;DHT22;10183;47.808;9.476;2023-03-02T07:33:55;1.00;99.90
20045;DHT22;10183;47.808;9.476;2023-03-02T07:36:21;1.10;99.90
20045;DHT22;10183;47.808;9.476;2023-03-02T07:38:47;1.20;99.90
20045;DHT22;10183;47.808;9.476;2023-03-02T07:41:13;1.20;99.90
20045;DHT22;10183;47.808;9.476;2023-03-02T07:43:41;1.20;99.90
20045;DHT22;10183;47.808;9.476;2023-03-02T07:46:07;1.10;99.90
20045;DHT22;10183;47.808;9.476;2023-03-02T07:48:34;1.10;99.90
20045;DHT22;10183;47.808;9.476;2023-03-02T07:51:01;1.20;99.90
20045;DHT22;10183;47.808;9.476;2023-03-02T07:53:28;1.30;99.90
20045;DHT22;10183;47.808;9.476;2023-03-02T07:55:54;1.30;99.90
20045;DHT22;10183;47.808;9.476;2023-03-02T07:58:21;1.30;99.90
20045;DHT22;10183;47.808;9.476;2023-03-02T08:00:47;1.30;99.90
20045;DHT22;10183;47.808;9.476;2023-03-02T08:03:13;1.40;99.90
20045;DHT22;10183;47.808;9.476;2023-03-02T08:05:39;1.30;99.90
20045;DHT22;10183;47.808;9.476;2023-03-02T08:08:06;1.40;99.90
20045;DHT22;10183;47.808;9.476;2023-03-02T08:10:35;1.40;99.90
20045;DHT22;10183;47.808;9.476;2023-03-02T08:13:02;1.40;99.90
20045;DHT22;10183;47.808;9.476;2023-03-02T08:15:28;1.40;99.90
20045;DHT22;10183;47.808;9.476;2023-03-02T08:17:54;1.50;99.90
20045;DHT22;10183;47.808;9.476;2023-03-02T08:20:20;1.50;99.90
20045;DHT22;10183;47.808;9.476;2023-03-02T08:22:46;1.50;99.90
20045;DHT22;10183;47.808;9.476;2023-03-02T08:25:12;1.50;99.90
20045;DHT22;10183;47.808;9.476;2023-03-02T08:27:39;1.60;99.90
20045;DHT22;10183;47.808;9.476;2023-03-02T08:30:06;1.60;99.90
20045;DHT22;10183;47.808;9.476;2023-03-02T08:32:33;1.60;99.90
20045;DHT22;10183;47.808;9.476;2023-03-02T08:34:59;1.70;99.90
20045;DHT22;10183;47.808;9.476;2023-03-02T08:37:25;1.80;99.90
20045;DHT22;10183;47.808;9.476;2023-03-02T08:39:51;1.80;99.90
20045;DHT22;10183;47.808;9.476;2023-03-02T08:42:17;1.80;99.90
20045;DHT22;10183;47.808;9.476;2023-03-02T08:44:44;1.90;99.90
20045;DHT22;10183;47.808;9.476;2023-03-02T08:47:10;1.90;99.90
20045;DHT22;10183;47.808;9.476;2023-03-02T08:49:36;1.90;99.90
20045;DHT22;10183;47.808;9.476;2023-03-02T08:52:03;2.00;99.90
20045;DHT22;10183;47.808;9.476;2023-03-02T08:54:30;2.00;99.90
20045;DHT22;10183;47.808;9.476;2023-03-02T08:56:56;2.10;99.90
20045;DHT22;10183;47.808;9.476;2023-03-02T08:59:22;2.20;99.90
20045;DHT22;10183;47.808;9.476;2023-03-02T09:01:48;2.20;99.90
20045;DHT22;10183;47.808;9.476;2023-03-02T09:04:15;2.20;99.90
20045;DHT22;10183;47.808;9.476;2023-03-02T09:06:43;2.20;99.90
20045;DHT22;10183;47.808;9.476;2023-03-02T09:09:11;2.30;99.90
20045;DHT22;10183;47.808;9.476;2023-03-02T09:11:38;2.30;99.90
20045;DHT22;10183;47.808;9.476;2023-03-02T09:14:04;2.20;99.90
20045;DHT22;10183;47.808;9.476;2023-03-02T09:16:30;2.10;99.90
20045;DHT22;10183;47.808;9.476;2023-03-02T09:18:57;2.00;99.90
20045;DHT22;10183;47.808;9.476;2023-03-02T09:21:23;2.20;99.90
20045;DHT22;10183;47.808;9.476;2023-03-02T09:23:49;2.30;99.90
20045;DHT22;10183;47.808;9.476;2023-03-02T09:26:20;2.30;99.90
20045;DHT22;10183;47.808;9.476;2023-03-02T09:28:47;2.40;99.90
20045;DHT22;10183;47.808;9.476;2023-03-02T09:31:13;2.60;99.90
20045;DHT22;10183;47.808;9.476;2023-03-02T09:33:39;2.50;99.90
20045;DHT22;10183;47.808;9.476;2023-03-02T09:36:07;2.60;99.90
20045;DHT22;10183;47.808;9.476;2023-03-02T09:38:34;2.80;99.90
20045;DHT22;10183;47.808;9.476;2023-03-02T09:49:12;2.40;99.90
20045;DHT22;10183;47.808;9.476;2023-03-02T09:54:11;2.40;99.90
20045;DHT22;10183;47.808;9.476;2023-03-02T09:57:15;2.50;99.90
20045;DHT22;10183;47.808;9.476;2023-03-02T10:02:16;2.30;99.90
20045;DHT22;10183;47.808;9.476;2023-03-02T10:04:52;2.50;99.90
20045;DHT22;10183;47.808;9.476;2023-03-02T10:07:35;2.40;99.90
20045;DHT22;10183;47.808;9.476;2023-03-02T10:10:23;2.40;99.90
20045;DHT22;10183;47.808;9.476;2023-03-02T10:15:46;2.40;99.90
20045;DHT22;10183;47.808;9.476;2023-03-02T10:21:12;2.30;99.90
20045;DHT22;10183;47.808;9.476;2023-03-02T10:32:19;2.70;99.90
20045;DHT22;10183;47.808;9.476;2023-03-02T10:34:47;2.80;99.90
20045;DHT22;10183;47.808;9.476;2023-03-02T10:37:19;2.80;99.90
20045;DHT22;10183;47.808;9.476;2023-03-02T10:39:46;2.80;99.90
20045;DHT22;10183;47.808;9.476;2023-03-02T10:42:17;3.00;99.90
20045;DHT22;10183;47.808;9.476;2023-03-02T10:44:51;3.20;99.90
20045;DHT22;10183;47.808;9.476;2023-03-02T10:47:28;3.30;99.90
20045;DHT22;10183;47.808;9.476;2023-03-02T10:49:56;3.30;99.90
20045;DHT22;10183;47.808;9.476;2023-03-02T10:52:27;3.20;99.90
20045;DHT22;10183;47.808;9.476;2023-03-02T10:57:30;3.60;99.90
20045;DHT22;10183;47.808;9.476;2023-03-02T11:00:04;3.70;99.90
20045;DHT22;10183;47.808;9.476;2023-03-02T11:02:36;3.40;99.90
20045;DHT22;10183;47.808;9.476;2023-03-02T11:07:54;4.10;99.90
20045;DHT22;10183;47.808;9.476;2023-03-02T11:10:23;4.10;99.90
20045;DHT22;10183;47.808;9.476;2023-03-02T11:12:51;4.30;99.90
20045;DHT22;10183;47.808;9.476;2023-03-02T11:15:35;4.10;99.90
20045;DHT22;10183;47.808;9.476;2023-03-02T11:20:40;4.20;99.90
20045;DHT22;10183;47.808;9.476;2023-03-02T11:23:54;4.00;99.90
20045;DHT22;10183;47.808;9.476;2023-03-02T11:26:23;3.90;99.90
20045;DHT22;10183;47.808;9.476;2023-03-02T11:31:44;3.80;99.90
20045;DHT22;10183;47.808;9.476;2023-03-02T11:36:58;3.90;99.90
20045;DHT22;10183;47.808;9.476;2023-03-02T11:42:19;3.00;99.90
20045;DHT22;10183;47.808;9.476;2023-03-02T11:44:47;3.20;99.90
20045;DHT22;10183;47.808;9.476;2023-03-02T11:47:14;3.40;99.90
20045;DHT22;10183;47.808;9.476;2023-03-02T11:49:45;3.50;99.90
20045;DHT22;10183;47.808;9.476;2023-03-02T11:52:21;3.60;99.90
20045;DHT22;10183;47.808;9.476;2023-03-02T11:57:27;3.00;99.90
20045;DHT22;10183;47.808;9.476;2023-03-02T11:59:55;2.50;99.90
20045;DHT22;10183;47.808;9.476;2023-03-02T12:02:24;2.30;99.90
20045;DHT22;10183;47.808;9.476;2023-03-02T12:05:01;2.50;99.90
20045;DHT22;10183;47.808;9.476;2023-03-02T12:07:28;2.70;99.90
20045;DHT22;10183;47.808;9.476;2023-03-02T12:13:38;2.90;99.90
20045;DHT22;10183;47.808;9.476;2023-03-02T12:16:39;3.00;99.90
20045;DHT22;10183;47.808;9.476;2023-03-02T12:19:27;3.10;99.90
20045;DHT22;10183;47.808;9.476;2023-03-02T12:22:06;3.30;99.90
20045;DHT22;10183;47.808;9.476;2023-03-02T12:24:36;3.40;99.90
20045;DHT22;10183;47.808;9.476;2023-03-02T12:29:48;3.60;99.90
20045;DHT22;10183;47.808;9.476;2023-03-02T12:37:25;3.60;99.90
20045;DHT22;10183;47.808;9.476;2023-03-02T12:51:44;3.60;99.90
20045;DHT22;10183;47.808;9.476;2023-03-02T12:54:14;3.30;99.90
20045;DHT22;10183;47.808;9.476;2023-03-02T12:56:41;3.40;99.90
20045;DHT22;10183;47.808;9.476;2023-03-02T12:59:27;3.40;99.90
20045;DHT22;10183;47.808;9.476;2023-03-02T13:02:13;3.50;99.90
20045;DHT22;10183;47.808;9.476;2023-03-02T13:04:40;3.50;99.90
20045;DHT22;10183;47.808;9.476;2023-03-02T13:07:17;3.60;99.90
20045;DHT22;10183;47.808;9.476;2023-03-02T13:09:49;3.60;99.90
20045;DHT22;10183;47.808;9.476;2023-03-02T13:12:15;3.60;99.90
20045;DHT22;10183;47.808;9.476;2023-03-02T13:14:44;3.40;99.90
20045;DHT22;10183;47.808;9.476;2023-03-02T13:17:25;3.50;99.90
20045;DHT22;10183;47.808;9.476;2023-03-02T13:19:52;3.60;99.90
20045;DHT22;10183;47.808;9.476;2023-03-02T13:22:19;3.50;99.90
20045;DHT22;10183;47.808;9.476;2023-03-02T13:24:59;3.50;99.90
20045;DHT22;10183;47.808;9.476;2023-03-02T13:27:27;3.40;99.90
20045;DHT22;10183;47.808;9.476;2023-03-02T13:29:54;3.40;99.90
20045;DHT22;10183;47.808;9.476;2023-03-02T13:32:33;3.10;99.90
20045;DHT22;10183;47.808;9.476;2023-03-02T13:34:59;3.10;99.90
20045;DHT22;10183;47.808;9.476;2023-03-02T13:39:59;3.10;99.90
20045;DHT22;10183;47.808;9.476;2023-03-02T13:42:35;3.10;99.90
20045;DHT22;10183;47.808;9.476;2023-03-02T13:45:35;3.10;99.90
20045;DHT22;10183;47.808;9.476;2023-03-02T13:48:12;3.10;99.90
20045;DHT22;10183;47.808;9.476;2023-03-02T13:50:52;3.10;99.90
20045;DHT22;10183;47.808;9.476;2023-03-02T13:53:19;3.10;99.90
20045;DHT22;10183;47.808;9.476;2023-03-02T13:55:46;3.00;99.90
20045;DHT22;10183;47.808;9.476;2023-03-02T13:58:18;2.90;99.90
20045;DHT22;10183;47.808;9.476;2023-03-02T14:00:45;2.80;99.90
20045;DHT22;10183;47.808;9.476;2023-03-02T14:03:32;2.80;99.90
20045;DHT22;10183;47.808;9.476;2023-03-02T14:05:58;2.80;99.90
20045;DHT22;10183;47.808;9.476;2023-03-02T14:08:25;2.80;99.90
20045;DHT22;10183;47.808;9.476;2023-03-02T14:10:54;2.70;99.90
20045;DHT22;10183;47.808;9.476;2023-03-02T14:13:29;2.80;99.90
20045;DHT22;10183;47.808;9.476;2023-03-02T14:15:58;2.70;99.90
20045;DHT22;10183;47.808;9.476;2023-03-02T14:20:57;2.70;99.90
20045;DHT22;10183;47.808;9.476;2023-03-02T14:23:26;2.70;99.90
20045;DHT22;10183;47.808;9.476;2023-03-02T14:25:54;2.70;99.90
20045;DHT22;10183;47.808;9.476;2023-03-02T14:28:32;2.70;99.90
20045;DHT22;10183;47.808;9.476;2023-03-02T14:31:01;2.80;99.90
20045;DHT22;10183;47.808;9.476;2023-03-02T14:33:27;2.80;99.90
20045;DHT22;10183;47.808;9.476;2023-03-02T14:35:55;2.70;99.90
20045;DHT22;10183;47.808;9.476;2023-03-02T14:38:25;2.70;99.90
20045;DHT22;10183;47.808;9.476;2023-03-02T14:40:53;2.60;99.90
20045;DHT22;10183;47.808;9.476;2023-03-02T14:43:19;2.60;99.90
20045;DHT22;10183;47.808;9.476;2023-03-02T14:45:46;2.60;99.90
20045;DHT22;10183;47.808;9.476;2023-03-02T14:48:12;2.50;99.90
20045;DHT22;10183;47.808;9.476;2023-03-02T14:50:40;2.20;99.90
20045;DHT22;10183;47.808;9.476;2023-03-02T14:53:28;1.90;99.90
20045;DHT22;10183;47.808;9.476;2023-03-02T14:55:55;2.00;99.90
20045;DHT22;10183;47.808;9.476;2023-03-02T14:58:31;2.10;99.90
20045;DHT22;10183;47.808;9.476;2023-03-02T15:00:59;2.10;99.90
20045;DHT22;10183;47.808;9.476;2023-03-02T15:03:25;2.00;99.90
20045;DHT22;10183;47.808;9.476;2023-03-02T15:05:53;2.00;99.90
20045;DHT22;10183;47.808;9.476;2023-03-02T15:08:20;2.00;99.90
20045;DHT22;10183;47.808;9.476;2023-03-02T15:10:47;1.90;99.90
20045;DHT22;10183;47.808;9.476;2023-03-02T15:13:14;1.90;99.90
20045;DHT22;10183;47.808;9.476;2023-03-02T15:15:42;1.90;99.90
20045;DHT22;10183;47.808;9.476;2023-03-02T15:18:11;1.90;99.90
20045;DHT22;10183;47.808;9.476;2023-03-02T15:20:38;1.90;99.90
20045;DHT22;10183;47.808;9.476;2023-03-02T15:23:04;1.90;99.90
20045;DHT22;10183;47.808;9.476;2023-03-02T15:25:31;2.00;99.90
20045;DHT22;10183;47.808;9.476;2023-03-02T15:27:57;1.90;99.90
20045;DHT22;10183;47.808;9.476;2023-03-02T15:30:23;1.90;99.90
20045;DHT22;10183;47.808;9.476;2023-03-02T15:32:56;1.90;99.90
20045;DHT22;10183;47.808;9.476;2023-03-02T15:35:27;1.90;99.90
20045;DHT22;10183;47.808;9.476;2023-03-02T15:37:54;2.00;99.90
20045;DHT22;10183;47.808;9.476;2023-03-02T15:40:23;2.10;99.90
20045;DHT22;10183;47.808;9.476;2023-03-02T15:42:49;2.10;99.90
20045;DHT22;10183;47.808;9.476;2023-03-02T15:45:16;2.10;99.90
20045;DHT22;10183;47.808;9.476;2023-03-02T15:47:42;2.00;99.90
20045;DHT22;10183;47.808;9.476;2023-03-02T15:50:09;1.70;99.90
20045;DHT22;10183;47.808;9.476;2023-03-02T15:52:36;1.40;99.90
20045;DHT22;10183;47.808;9.476;2023-03-02T15:55:02;1.40;99.90
20045;DHT22;10183;47.808;9.476;2023-03-02T15:57:29;1.50;99.90
20045;DHT22;10183;47.808;9.476;2023-03-02T15:59:55;1.60;99.90
20045;DHT22;10183;47.808;9.476;2023-03-02T16:02:21;1.80;99.90
20045;DHT22;10183;47.808;9.476;2023-03-02T16:04:48;1.80;99.90
20045;DHT22;10183;47.808;9.476;2023-03-02T16:07:14;1.80;99.90
20045;DHT22;10183;47.808;9.476;2023-03-02T16:09:41;1.80;99.90
20045;DHT22;10183;47.808;9.476;2023-03-02T16:12:10;1.60;99.90
20045;DHT22;10183;47.808;9.476;2023-03-02T16:14:36;1.50;99.90
20045;DHT22;10183;47.808;9.476;2023-03-02T16:17:02;1.40;99.90
20045;DHT22;10183;47.808;9.476;2023-03-02T16:19:28;1.40;99.90
20045;DHT22;10183;47.808;9.476;2023-03-02T16:21:55;1.40;99.90
20045;DHT22;10183;47.808;9.476;2023-03-02T16:24:21;1.40;99.90
20045;DHT22;10183;47.808;9.476;2023-03-02T16:26:48;1.40;99.90
20045;DHT22;10183;47.808;9.476;2023-03-02T16:29:15;1.30;99.90
20045;DHT22;10183;47.808;9.476;2023-03-02T16:31:44;1.40;99.90
20045;DHT22;10183;47.808;9.476;2023-03-02T16:34:11;1.20;99.90
20045;DHT22;10183;47.808;9.476;2023-03-02T16:36:38;1.20;99.90
20045;DHT22;10183;47.808;9.476;2023-03-02T16:39:06;1.20;99.90
20045;DHT22;10183;47.808;9.476;2023-03-02T16:41:35;1.20;99.90
20045;DHT22;10183;47.808;9.476;2023-03-02T16:44:02;1.30;99.90
20045;DHT22;10183;47.808;9.476;2023-03-02T16:46:30;1.30;99.90
20045;DHT22;10183;47.808;9.476;2023-03-02T16:48:58;1.30;99.90
20045;DHT22;10183;47.808;9.476;2023-03-02T16:51:24;1.40;99.90
20045;DHT22;10183;47.808;9.476;2023-03-02T16:53:50;1.40;99.90
20045;DHT22;10183;47.808;9.476;2023-03-02T16:56:17;1.40;99.90
20045;DHT22;10183;47.808;9.476;2023-03-02T16:58:43;1.40;99.90
20045;DHT22;10183;47.808;9.476;2023-03-02T17:01:16;1.30;99.90
20045;DHT22;10183;47.808;9.476;2023-03-02T17:03:43;1.30;99.90
20045;DHT22;10183;47.808;9.476;2023-03-02T17:06:10;1.30;99.90
20045;DHT22;10183;47.808;9.476;2023-03-02T17:08:37;1.20;99.90
20045;DHT22;10183;47.808;9.476;2023-03-02T17:11:04;1.20;99.90
20045;DHT22;10183;47.808;9.476;2023-03-02T17:13:30;1.20;99.90
20045;DHT22;10183;47.808;9.476;2023-03-02T17:15:57;1.20;99.90
20045;DHT22;10183;47.808;9.476;2023-03-02T17:18:24;1.20;99.90
20045;DHT22;10183;47.808;9.476;2023-03-02T17:20:55;1.20;99.90